Time;durP1;ratioP1;P1;durP2;ratioP2;P2;SDS_P1;SDS_P2;PMS_P1;PMS_P2;Temp;Humidity;BMP_temperature;BMP_pressure;BME280_temperature;BME280_humidity;BME280_pressure;Samples;Min_cycle;Max_cycle;Signal;HPM_P1;HPM_P2
2022/11/10 00:00:22;;;;;;;0.40;0.40;;;;;;;;;;5110510;28;20057;-70
2022/11/10 00:03:08;;;;;;;0.10;0.10;;;;;;;;;;5110706;28;20482;-70
2022/11/10 00:05:53;;;;;;;0.32;0.32;;;;;;;;;;5110368;28;20038;-72
2022/11/10 00:08:37;;;;;;;0.95;0.95;;;;;;;;;;5110385;28;20043;-70
2022/11/10 00:11:22;;;;;;;0.63;0.63;;;;;;;;;;5110382;28;20051;-71
2022/11/10 00:17:10;;;;;;;0.10;0.10;;;;;;;;;;5113309;28;20127;-71
2022/11/10 00:19:54;;;;;;;2.40;1.65;;;;;;;;;;5114310;28;20460;-71
2022/11/10 00:22:40;;;;;;;0.80;0.80;;;;;;;;;;5114251;28;20038;-71
2022/11/10 00:25:24;;;;;;;0.32;0.32;;;;;;;;;;5113202;28;20035;-70
2022/11/10 00:28:09;;;;;;;0.30;0.30;;;;;;;;;;5113332;28;20035;-70
2022/11/10 00:30:53;;;;;;;0.20;0.20;;;;;;;;;;5113615;28;20065;-70
2022/11/10 00:33:39;;;;;;;1.95;1.85;;;;;;;;;;5113028;28;20061;-70
2022/11/10 00:36:24;;;;;;;1.15;1.15;;;;;;;;;;5114038;28;20073;-71
2022/11/10 00:39:09;;;;;;;0.30;0.30;;;;;;;;;;5114102;28;20042;-70
2022/11/10 00:41:53;;;;;;;1.10;1.10;;;;;;;;;;5113912;28;20038;-70
2022/11/10 00:44:37;;;;;;;0.68;0.68;;;;;;;;;;5113881;28;20034;-70
2022/11/10 00:47:21;;;;;;;2.08;1.98;;;;;;;;;;5113529;28;20068;-70
2022/11/10 00:50:06;;;;;;;0.20;0.20;;;;;;;;;;5114185;28;20062;-70
2022/11/10 00:52:50;;;;;;;0.10;0.10;;;;;;;;;;5113947;28;20057;-70
2022/11/10 00:55:38;;;;;;;0.10;0.10;;;;;;;;;;5113463;28;20106;-71
2022/11/10 00:58:22;;;;;;;0.52;0.52;;;;;;;;;;5114124;28;20037;-69
2022/11/10 01:01:07;;;;;;;0.10;0.10;;;;;;;;;;5118224;28;20078;-70
2022/11/10 01:03:52;;;;;;;10.02;5.28;;;;;;;;;;5117909;28;20035;-71
2022/11/10 01:06:37;;;;;;;0.50;0.50;;;;;;;;;;5116869;28;20042;-71
2022/11/10 01:09:21;;;;;;;0.10;0.10;;;;;;;;;;5117814;28;20038;-71
2022/11/10 01:12:05;;;;;;;0.73;0.73;;;;;;;;;;5117631;28;20071;-71
2022/11/10 01:14:49;;;;;;;0.20;0.20;;;;;;;;;;5117924;28;20050;-71
2022/11/10 01:17:33;;;;;;;1.10;1.02;;;;;;;;;;5117846;28;20042;-70
2022/11/10 01:20:18;;;;;;;0.10;0.10;;;;;;;;;;5117770;28;20043;-70
2022/11/10 01:23:02;;;;;;;0.47;0.47;;;;;;;;;;5117701;28;20085;-70
2022/11/10 01:25:46;;;;;;;0.15;0.15;;;;;;;;;;5117657;28;20547;-70
2022/11/10 01:28:31;;;;;;;0.30;0.30;;;;;;;;;;5117468;28;20120;-70
2022/11/10 01:31:17;;;;;;;0.10;0.10;;;;;;;;;;5116884;28;20074;-70
2022/11/10 01:34:02;;;;;;;0.10;0.10;;;;;;;;;;5117229;28;20046;-70
2022/11/10 01:36:46;;;;;;;0.10;0.10;;;;;;;;;;5116461;28;20046;-70
2022/11/10 01:39:30;;;;;;;0.10;0.10;;;;;;;;;;5117275;28;20424;-70
2022/11/10 01:42:15;;;;;;;3.20;3.10;;;;;;;;;;5117447;28;20043;-71
2022/11/10 01:45:17;;;;;;;0.98;0.98;;;;;;;;;;5117235;28;20447;-71
2022/11/10 01:48:05;;;;;;;0.10;0.10;;;;;;;;;;5117066;28;20104;-70
2022/11/10 01:50:49;;;;;;;1.17;1.17;;;;;;;;;;5117065;28;20058;-70
2022/11/10 01:53:36;;;;;;;0.10;0.10;;;;;;;;;;5117108;28;20084;-70
2022/11/10 01:56:21;;;;;;;0.10;0.10;;;;;;;;;;5116896;28;20042;-70
2022/11/10 01:59:08;;;;;;;0.63;0.63;;;;;;;;;;5116062;28;20050;-70
2022/11/10 02:01:54;;;;;;;0.13;0.13;;;;;;;;;;5115821;28;20126;-70
2022/11/10 02:04:38;;;;;;;0.10;0.10;;;;;;;;;;5116825;28;20051;-70
2022/11/10 02:07:23;;;;;;;0.10;0.10;;;;;;;;;;5116855;28;20042;-70
2022/11/10 02:10:17;;;;;;;0.45;0.45;;;;;;;;;;5116286;28;20042;-71
2022/11/10 02:13:02;;;;;;;3.63;3.20;;;;;;;;;;5115589;28;20493;-71
2022/11/10 02:15:46;;;;;;;0.10;0.10;;;;;;;;;;5116422;28;20085;-70
2022/11/10 02:18:31;;;;;;;0.10;0.10;;;;;;;;;;5116133;28;20089;-70
2022/11/10 02:21:16;;;;;;;1.38;1.08;;;;;;;;;;5115729;28;20100;-71
2022/11/10 02:24:01;;;;;;;0.13;0.13;;;;;;;;;;5116383;28;20444;-70
2022/11/10 02:26:54;;;;;;;0.10;0.10;;;;;;;;;;5116499;28;20070;-70
2022/11/10 02:29:40;;;;;;;12.25;6.22;;;;;;;;;;5115986;28;20176;-70
2022/11/10 02:32:25;;;;;;;0.10;0.10;;;;;;;;;;5116168;28;20046;-70
2022/11/10 02:35:10;;;;;;;0.13;0.13;;;;;;;;;;5116034;28;20046;-70
2022/11/10 02:37:54;;;;;;;0.15;0.15;;;;;;;;;;5116234;28;20039;-71
2022/11/10 02:40:38;;;;;;;0.10;0.10;;;;;;;;;;5115975;28;20082;-70
2022/11/10 02:43:23;;;;;;;0.25;0.25;;;;;;;;;;5116159;28;20089;-70
2022/11/10 02:46:07;;;;;;;0.20;0.20;;;;;;;;;;5116102;28;20555;-71
2022/11/10 02:48:52;;;;;;;0.10;0.10;;;;;;;;;;5116143;28;20386;-72
2022/11/10 02:51:36;;;;;;;0.10;0.10;;;;;;;;;;5115733;28;20046;-70
2022/11/10 02:54:21;;;;;;;1.80;1.75;;;;;;;;;;5115876;28;20062;-70
2022/11/10 02:57:06;;;;;;;0.10;0.10;;;;;;;;;;5115849;28;20088;-71
2022/11/10 02:59:50;;;;;;;0.63;0.63;;;;;;;;;;5115739;28;20057;-70
2022/11/10 03:02:34;;;;;;;0.10;0.10;;;;;;;;;;5115784;28;20042;-70
2022/11/10 03:05:18;;;;;;;0.10;0.10;;;;;;;;;;5115562;28;20066;-71
2022/11/10 03:08:03;;;;;;;0.10;0.10;;;;;;;;;;5115679;28;20045;-70
2022/11/10 03:10:47;;;;;;;7.32;6.43;;;;;;;;;;5115505;28;20191;-71
2022/11/10 03:13:31;;;;;;;0.10;0.10;;;;;;;;;;5115409;28;20080;-71
2022/11/10 03:16:15;;;;;;;0.10;0.10;;;;;;;;;;5115297;28;20531;-72
2022/11/10 03:18:59;;;;;;;0.13;0.13;;;;;;;;;;5115454;28;20399;-71
2022/11/10 03:21:44;;;;;;;0.10;0.10;;;;;;;;;;5114353;28;20066;-70
2022/11/10 03:24:28;;;;;;;0.10;0.10;;;;;;;;;;5115370;28;20042;-70
2022/11/10 03:27:12;;;;;;;0.10;0.10;;;;;;;;;;5115024;28;20042;-70
2022/11/10 03:29:57;;;;;;;0.98;0.38;;;;;;;;;;5115092;28;20493;-70
2022/11/10 03:32:41;;;;;;;0.10;0.10;;;;;;;;;;5114811;28;20093;-70
2022/11/10 03:35:26;;;;;;;0.10;0.10;;;;;;;;;;5115173;28;20046;-71
2022/11/10 03:38:10;;;;;;;0.10;0.10;;;;;;;;;;5114841;28;20122;-71
2022/11/10 03:40:55;;;;;;;0.32;0.32;;;;;;;;;;5114917;28;20054;-71
2022/11/10 03:43:39;;;;;;;0.10;0.10;;;;;;;;;;5114855;28;20513;-70
2022/11/10 03:46:24;;;;;;;0.10;0.10;;;;;;;;;;5115924;28;20085;-70
2022/11/10 03:49:08;;;;;;;0.30;0.30;;;;;;;;;;5114929;28;20243;-70
2022/11/10 03:51:52;;;;;;;0.10;0.10;;;;;;;;;;5113571;28;20532;-71
2022/11/10 03:54:37;;;;;;;0.10;0.10;;;;;;;;;;5114592;28;20050;-71
2022/11/10 03:57:21;;;;;;;0.10;0.10;;;;;;;;;;5114740;28;20493;-71
2022/11/10 04:00:06;;;;;;;0.10;0.10;;;;;;;;;;5114709;28;20489;-71
2022/11/10 04:02:50;;;;;;;0.10;0.10;;;;;;;;;;5102759;28;20035;-70
2022/11/10 04:17:50;;;;;;;0.10;0.10;;;;;;;;;;5089744;28;20058;-71
2022/11/10 04:20:34;;;;;;;0.20;0.20;;;;;;;;;;5107188;28;20034;-71
2022/11/10 04:23:34;;;;;;;0.20;0.20;;;;;;;;;;5110162;28;20451;-70
2022/11/10 04:26:28;;;;;;;0.95;0.95;;;;;;;;;;5110611;28;20043;-72
2022/11/10 04:29:14;;;;;;;0.13;0.13;;;;;;;;;;5110466;28;20957;-72
2022/11/10 04:31:58;;;;;;;0.10;0.10;;;;;;;;;;5109935;28;20509;-71
2022/11/10 04:34:42;;;;;;;0.10;0.10;;;;;;;;;;5110086;28;20177;-71
2022/11/10 04:37:27;;;;;;;0.10;0.10;;;;;;;;;;5110153;28;20050;-69
2022/11/10 04:40:11;;;;;;;0.85;0.85;;;;;;;;;;5110466;28;20084;-71
2022/11/10 04:42:56;;;;;;;1.45;1.20;;;;;;;;;;5109731;28;20069;-71
2022/11/10 04:45:41;;;;;;;0.20;0.20;;;;;;;;;;5109028;28;20034;-74
2022/11/10 04:48:27;;;;;;;0.13;0.13;;;;;;;;;;5110064;28;20063;-70
2022/11/10 04:51:11;;;;;;;0.20;0.20;;;;;;;;;;5109936;28;20100;-70
2022/11/10 04:53:55;;;;;;;0.10;0.10;;;;;;;;;;5109712;28;20161;-70
2022/11/10 04:56:40;;;;;;;0.17;0.17;;;;;;;;;;5109905;28;20089;-71
2022/11/10 04:59:24;;;;;;;0.10;0.10;;;;;;;;;;5110023;28;20035;-71
2022/11/10 05:02:09;;;;;;;0.10;0.10;;;;;;;;;;5109950;28;20050;-71
2022/11/10 05:04:53;;;;;;;0.10;0.10;;;;;;;;;;5110032;28;20120;-71
2022/11/10 05:07:38;;;;;;;0.10;0.10;;;;;;;;;;5110046;28;20081;-71
2022/11/10 05:10:22;;;;;;;0.10;0.10;;;;;;;;;;5109815;28;20062;-71
2022/11/10 05:13:06;;;;;;;0.10;0.10;;;;;;;;;;5110035;28;20575;-71
2022/11/10 05:15:52;;;;;;;0.10;0.10;;;;;;;;;;5109793;28;20035;-70
2022/11/10 05:18:36;;;;;;;0.20;0.20;;;;;;;;;;5109742;28;20504;-73
2022/11/10 05:21:21;;;;;;;0.10;0.10;;;;;;;;;;5109437;28;20050;-70
2022/11/10 05:24:05;;;;;;;0.10;0.10;;;;;;;;;;5109482;28;20092;-70
2022/11/10 05:26:49;;;;;;;0.10;0.10;;;;;;;;;;5108325;28;20047;-71
2022/11/10 05:29:33;;;;;;;0.10;0.10;;;;;;;;;;5109216;28;20046;-70
2022/11/10 05:32:17;;;;;;;0.10;0.10;;;;;;;;;;5109641;28;20128;-70
2022/11/10 05:35:01;;;;;;;0.10;0.10;;;;;;;;;;5109365;28;20047;-71
2022/11/10 05:37:45;;;;;;;0.10;0.10;;;;;;;;;;5109319;28;20046;-70
2022/11/10 05:40:29;;;;;;;0.10;0.10;;;;;;;;;;5108486;28;20066;-71
2022/11/10 05:43:14;;;;;;;0.13;0.13;;;;;;;;;;5107465;28;20046;-71
2022/11/10 05:45:59;;;;;;;0.20;0.20;;;;;;;;;;5110923;28;20096;-70
2022/11/10 05:48:43;;;;;;;0.20;0.20;;;;;;;;;;5110961;28;20027;-72
2022/11/10 05:51:27;;;;;;;0.15;0.15;;;;;;;;;;5110962;28;20169;-71
2022/11/10 05:54:11;;;;;;;0.10;0.10;;;;;;;;;;5111660;28;20050;-71
2022/11/10 05:56:55;;;;;;;0.10;0.10;;;;;;;;;;5111230;28;20045;-72
2022/11/10 05:59:40;;;;;;;0.10;0.10;;;;;;;;;;5112553;28;20129;-71
2022/11/10 06:02:25;;;;;;;0.20;0.20;;;;;;;;;;5113073;28;20497;-71
2022/11/10 06:05:09;;;;;;;0.20;0.20;;;;;;;;;;5112685;28;20043;-71
2022/11/10 06:07:54;;;;;;;0.10;0.10;;;;;;;;;;5112920;28;20440;-71
2022/11/10 06:10:38;;;;;;;0.20;0.20;;;;;;;;;;5111940;28;20039;-72
2022/11/10 06:13:24;;;;;;;0.50;0.50;;;;;;;;;;5112547;28;20057;-70
2022/11/10 06:16:08;;;;;;;0.30;0.30;;;;;;;;;;5092358;28;20043;-70
2022/11/10 06:18:52;;;;;;;0.10;0.10;;;;;;;;;;5092123;28;20973;-70
2022/11/10 06:21:36;;;;;;;0.10;0.10;;;;;;;;;;5091526;28;20043;-72
2022/11/10 06:24:21;;;;;;;0.10;0.10;;;;;;;;;;5092122;28;20162;-70
2022/11/10 06:27:05;;;;;;;0.10;0.10;;;;;;;;;;5091563;28;20036;-69
2022/11/10 06:29:50;;;;;;;0.13;0.13;;;;;;;;;;5091838;28;20399;-72
2022/11/10 06:32:34;;;;;;;0.10;0.10;;;;;;;;;;5091451;28;20156;-71
2022/11/10 06:35:19;;;;;;;0.10;0.10;;;;;;;;;;5091962;28;20628;-71
2022/11/10 06:38:04;;;;;;;0.75;0.75;;;;;;;;;;5092150;28;20089;-70
2022/11/10 06:40:48;;;;;;;1.42;0.73;;;;;;;;;;5090882;28;20039;-71
2022/11/10 06:43:33;;;;;;;0.28;0.28;;;;;;;;;;5090279;28;20035;-71
2022/11/10 06:46:17;;;;;;;0.10;0.10;;;;;;;;;;5090044;28;20051;-70
2022/11/10 06:49:03;;;;;;;0.10;0.10;;;;;;;;;;5089990;28;20054;-71
2022/11/10 06:51:47;;;;;;;0.10;0.10;;;;;;;;;;5089935;28;20105;-71
2022/11/10 06:54:31;;;;;;;0.57;0.57;;;;;;;;;;5089979;28;20391;-71
2022/11/10 06:57:16;;;;;;;0.10;0.10;;;;;;;;;;5090905;28;20097;-70
2022/11/10 07:00:01;;;;;;;0.10;0.10;;;;;;;;;;5090658;28;20035;-72
2022/11/10 07:02:45;;;;;;;1.13;0.68;;;;;;;;;;5091192;28;20078;-71
2022/11/10 07:05:30;;;;;;;0.10;0.10;;;;;;;;;;5091221;28;20035;-71
2022/11/10 07:08:15;;;;;;;0.20;0.20;;;;;;;;;;5091317;28;20058;-71
2022/11/10 07:11:00;;;;;;;0.10;0.10;;;;;;;;;;5091513;28;20078;-71
2022/11/10 07:13:44;;;;;;;0.25;0.25;;;;;;;;;;5091247;28;20055;-71
2022/11/10 07:16:29;;;;;;;6.05;5.57;;;;;;;;;;5091242;28;20090;-71
2022/11/10 07:19:13;;;;;;;0.20;0.20;;;;;;;;;;5091099;28;20039;-70
2022/11/10 07:21:58;;;;;;;0.10;0.10;;;;;;;;;;5091334;28;20085;-70
2022/11/10 07:24:42;;;;;;;0.17;0.17;;;;;;;;;;5091013;28;20058;-70
2022/11/10 07:27:26;;;;;;;0.20;0.20;;;;;;;;;;5091072;28;20051;-72
2022/11/10 07:30:12;;;;;;;0.30;0.30;;;;;;;;;;5091163;28;20055;-71
2022/11/10 07:32:57;;;;;;;0.20;0.20;;;;;;;;;;5090519;28;20116;-70
2022/11/10 07:35:41;;;;;;;0.20;0.20;;;;;;;;;;5090862;28;20085;-72
2022/11/10 07:38:26;;;;;;;0.10;0.10;;;;;;;;;;5091099;28;20043;-70
2022/11/10 07:41:10;;;;;;;0.10;0.10;;;;;;;;;;5090585;28;20070;-71
2022/11/10 07:43:54;;;;;;;0.10;0.10;;;;;;;;;;5090873;28;20047;-71
2022/11/10 07:46:39;;;;;;;0.10;0.10;;;;;;;;;;5090288;28;20073;-73
2022/11/10 07:49:23;;;;;;;0.20;0.20;;;;;;;;;;5090765;28;20111;-70
2022/11/10 07:52:08;;;;;;;0.13;0.13;;;;;;;;;;5090388;28;20152;-70
2022/11/10 07:54:53;;;;;;;0.17;0.17;;;;;;;;;;5090382;28;20795;-71
2022/11/10 07:57:37;;;;;;;0.20;0.20;;;;;;;;;;5091079;28;20461;-70
2022/11/10 08:00:22;;;;;;;0.40;0.40;;;;;;;;;;5089465;28;20050;-70
2022/11/10 08:03:09;;;;;;;0.20;0.20;;;;;;;;;;5090187;28;20035;-70
2022/11/10 08:05:53;;;;;;;0.30;0.30;;;;;;;;;;5089977;28;20126;-72
2022/11/10 08:08:37;;;;;;;0.15;0.15;;;;;;;;;;5089262;28;20094;-70
2022/11/10 08:11:22;;;;;;;0.20;0.20;;;;;;;;;;5090289;28;20043;-70
2022/11/10 08:14:06;;;;;;;0.10;0.10;;;;;;;;;;5090138;28;20039;-71
2022/11/10 08:16:50;;;;;;;0.63;0.63;;;;;;;;;;5089645;28;20051;-70
2022/11/10 08:19:35;;;;;;;0.17;0.17;;;;;;;;;;5090240;28;20035;-72
2022/11/10 08:22:20;;;;;;;0.40;0.40;;;;;;;;;;5090246;28;20562;-70
2022/11/10 08:25:04;;;;;;;0.30;0.30;;;;;;;;;;5090104;28;20119;-71
2022/11/10 08:27:54;;;;;;;1.10;1.10;;;;;;;;;;5089940;28;20088;-70
2022/11/10 08:30:40;;;;;;;0.22;0.22;;;;;;;;;;5089128;28;20153;-71
2022/11/10 08:33:25;;;;;;;0.77;0.77;;;;;;;;;;5090086;28;20078;-71
2022/11/10 08:36:09;;;;;;;0.20;0.20;;;;;;;;;;5089610;28;20046;-72
2022/11/10 08:38:54;;;;;;;0.20;0.20;;;;;;;;;;5089811;28;20077;-71
2022/11/10 08:41:38;;;;;;;1.02;1.02;;;;;;;;;;5089480;28;20455;-71
2022/11/10 08:44:23;;;;;;;0.50;0.50;;;;;;;;;;5088978;28;20039;-70
2022/11/10 08:47:07;;;;;;;0.20;0.20;;;;;;;;;;5089619;28;20506;-72
2022/11/10 08:49:52;;;;;;;0.30;0.30;;;;;;;;;;5089836;28;20113;-72
2022/11/10 08:52:36;;;;;;;0.30;0.30;;;;;;;;;;5089260;28;20079;-71
2022/11/10 08:55:21;;;;;;;0.20;0.20;;;;;;;;;;5089773;28;20373;-72
2022/11/10 08:58:07;;;;;;;0.20;0.20;;;;;;;;;;5089571;28;20035;-72
2022/11/10 09:00:51;;;;;;;0.20;0.20;;;;;;;;;;5089183;28;20047;-72
2022/11/10 09:03:35;;;;;;;0.20;0.20;;;;;;;;;;5088518;28;20039;-73
2022/11/10 09:06:19;;;;;;;0.20;0.20;;;;;;;;;;5089720;28;20051;-72
2022/11/10 09:09:03;;;;;;;0.20;0.20;;;;;;;;;;5089029;28;20043;-72
2022/11/10 09:11:47;;;;;;;0.20;0.20;;;;;;;;;;5089469;28;20097;-71
2022/11/10 09:14:32;;;;;;;2.42;1.60;;;;;;;;;;5089391;28;20071;-71
2022/11/10 09:17:16;;;;;;;0.20;0.20;;;;;;;;;;5089364;28;20047;-72
2022/11/10 09:20:00;;;;;;;0.30;0.30;;;;;;;;;;5091723;28;20035;-74
2022/11/10 09:22:44;;;;;;;0.20;0.20;;;;;;;;;;5093121;28;20871;-72
2022/11/10 09:25:29;;;;;;;0.30;0.30;;;;;;;;;;5093258;28;20086;-72
2022/11/10 09:28:13;;;;;;;0.30;0.30;;;;;;;;;;5093129;28;20042;-71
2022/11/10 09:30:58;;;;;;;0.30;0.30;;;;;;;;;;5092667;28;20059;-72
2022/11/10 09:33:42;;;;;;;0.20;0.20;;;;;;;;;;5093474;28;20093;-72
2022/11/10 09:36:26;;;;;;;0.35;0.35;;;;;;;;;;5093613;28;20097;-71
2022/11/10 09:39:11;;;;;;;0.20;0.20;;;;;;;;;;5092931;28;20129;-72
2022/11/10 09:41:55;;;;;;;0.40;0.40;;;;;;;;;;5093135;28;20140;-72
2022/11/10 09:44:45;;;;;;;0.20;0.20;;;;;;;;;;5092613;28;20513;-72
2022/11/10 09:47:33;;;;;;;0.40;0.40;;;;;;;;;;5092159;28;20043;-71
2022/11/10 09:50:27;;;;;;;0.25;0.25;;;;;;;;;;5092894;28;20081;-71
2022/11/10 09:53:18;;;;;;;0.20;0.20;;;;;;;;;;5092844;28;20059;-71
2022/11/10 09:56:03;;;;;;;0.20;0.20;;;;;;;;;;5092741;28;20478;-71
2022/11/10 09:58:49;;;;;;;0.20;0.20;;;;;;;;;;5091342;28;20058;-72
2022/11/10 10:01:36;;;;;;;0.28;0.28;;;;;;;;;;5092622;28;20047;-73
2022/11/10 10:04:20;;;;;;;0.25;0.25;;;;;;;;;;5092791;28;20120;-71
2022/11/10 10:07:19;;;;;;;0.30;0.30;;;;;;;;;;5092417;28;20042;-72
2022/11/10 10:10:11;;;;;;;0.30;0.30;;;;;;;;;;5092615;28;20047;-72
2022/11/10 10:13:11;;;;;;;0.40;0.40;;;;;;;;;;5091828;28;20051;-73
2022/11/10 10:16:01;;;;;;;0.68;0.68;;;;;;;;;;5092325;28;20051;-73
2022/11/10 10:18:46;;;;;;;0.20;0.20;;;;;;;;;;5092146;28;20044;-71
2022/11/10 10:21:36;;;;;;;0.20;0.20;;;;;;;;;;5092336;28;20116;-72
2022/11/10 10:24:22;;;;;;;0.30;0.30;;;;;;;;;;5092022;28;20047;-72
2022/11/10 10:27:09;;;;;;;0.30;0.30;;;;;;;;;;5092092;28;20109;-72
2022/11/10 10:29:53;;;;;;;0.30;0.30;;;;;;;;;;5091674;28;20465;-71
2022/11/10 10:32:38;;;;;;;0.40;0.40;;;;;;;;;;5091424;28;20042;-72
2022/11/10 10:35:23;;;;;;;0.17;0.17;;;;;;;;;;5091840;28;20051;-72
2022/11/10 10:38:17;;;;;;;0.20;0.20;;;;;;;;;;5092368;28;20035;-71
2022/11/10 10:41:11;;;;;;;0.38;0.38;;;;;;;;;;5091672;28;20494;-72
2022/11/10 10:43:57;;;;;;;2.50;1.90;;;;;;;;;;5091810;28;20043;-71
2022/11/10 10:46:49;;;;;;;0.20;0.20;;;;;;;;;;5091698;28;20082;-70
2022/11/10 10:49:35;;;;;;;0.30;0.30;;;;;;;;;;5091894;28;20039;-69
2022/11/10 10:52:23;;;;;;;0.20;0.20;;;;;;;;;;5091456;28;20074;-71
2022/11/10 10:55:08;;;;;;;0.20;0.20;;;;;;;;;;5091730;28;20046;-71
2022/11/10 10:57:57;;;;;;;0.30;0.30;;;;;;;;;;5091385;28;20043;-73
2022/11/10 11:00:42;;;;;;;0.30;0.30;;;;;;;;;;5091664;28;20081;-71
2022/11/10 11:03:37;;;;;;;0.20;0.20;;;;;;;;;;5090573;28;20077;-70
2022/11/10 11:06:25;;;;;;;0.30;0.30;;;;;;;;;;5090539;28;20062;-70
2022/11/10 11:09:16;;;;;;;0.20;0.20;;;;;;;;;;5091303;28;20082;-71
2022/11/10 11:12:02;;;;;;;0.30;0.30;;;;;;;;;;5091020;28;20177;-70
2022/11/10 11:14:46;;;;;;;0.35;0.35;;;;;;;;;;5090108;28;20042;-70
2022/11/10 11:17:30;;;;;;;0.30;0.30;;;;;;;;;;5091356;28;20043;-69
2022/11/10 11:20:14;;;;;;;0.20;0.20;;;;;;;;;;5090294;28;20119;-69
2022/11/10 11:23:07;;;;;;;0.20;0.20;;;;;;;;;;5090902;28;20055;-69
2022/11/10 11:25:53;;;;;;;0.30;0.30;;;;;;;;;;5091151;28;20135;-69
2022/11/10 11:28:52;;;;;;;0.20;0.20;;;;;;;;;;5090857;28;20058;-70
2022/11/10 11:31:40;;;;;;;0.30;0.30;;;;;;;;;;5090441;28;20411;-70
2022/11/10 11:34:36;;;;;;;0.30;0.30;;;;;;;;;;5091075;28;20073;-69
2022/11/10 11:37:27;;;;;;;0.43;0.43;;;;;;;;;;5090642;28;20043;-69
2022/11/10 11:40:15;;;;;;;0.20;0.20;;;;;;;;;;5090956;28;20089;-69
2022/11/10 11:43:02;;;;;;;2.03;1.95;;;;;;;;;;5089769;28;20174;-69
2022/11/10 11:45:56;;;;;;;0.20;0.20;;;;;;;;;;5090360;28;20039;-69
2022/11/10 11:48:41;;;;;;;0.30;0.30;;;;;;;;;;5090105;28;20391;-71
2022/11/10 11:51:44;;;;;;;0.20;0.20;;;;;;;;;;5090572;28;20043;-71
2022/11/10 11:54:28;;;;;;;2.05;1.98;;;;;;;;;;5090288;28;20034;-70
2022/11/10 11:57:23;;;;;;;0.28;0.28;;;;;;;;;;5090561;28;20043;-71
2022/11/10 12:00:11;;;;;;;0.20;0.20;;;;;;;;;;5090438;28;20494;-70
2022/11/10 12:03:10;;;;;;;0.20;0.20;;;;;;;;;;5090008;28;20046;-70
2022/11/10 12:06:04;;;;;;;0.20;0.20;;;;;;;;;;5090414;28;20042;-70
2022/11/10 12:09:06;;;;;;;0.20;0.20;;;;;;;;;;5089918;28;20043;-69
2022/11/10 12:12:11;;;;;;;0.20;0.20;;;;;;;;;;5089986;28;20402;-72
2022/11/10 12:15:01;;;;;;;0.20;0.20;;;;;;;;;;5089884;28;20100;-70
2022/11/10 12:17:55;;;;;;;0.22;0.22;;;;;;;;;;5090029;28;20094;-70
2022/11/10 12:20:42;;;;;;;0.17;0.17;;;;;;;;;;5088781;28;20066;-69
2022/11/10 12:23:33;;;;;;;0.25;0.25;;;;;;;;;;5089976;28;20050;-70
2022/11/10 12:26:36;;;;;;;0.20;0.20;;;;;;;;;;5089770;28;20040;-69
2022/11/10 12:29:23;;;;;;;0.30;0.30;;;;;;;;;;5089982;28;20540;-69
2022/11/10 12:32:20;;;;;;;0.20;0.20;;;;;;;;;;5089818;28;20135;-70
2022/11/10 12:35:09;;;;;;;0.20;0.20;;;;;;;;;;5090120;28;20047;-69
2022/11/10 12:37:57;;;;;;;0.20;0.20;;;;;;;;;;5089888;28;20092;-70
2022/11/10 12:40:58;;;;;;;0.20;0.20;;;;;;;;;;5089501;28;20078;-69
2022/11/10 12:43:48;;;;;;;0.20;0.20;;;;;;;;;;5089660;28;20125;-70
2022/11/10 12:46:33;;;;;;;0.20;0.20;;;;;;;;;;5090158;28;20544;-71
2022/11/10 12:49:20;;;;;;;0.20;0.20;;;;;;;;;;5088849;28;20082;-71
2022/11/10 12:52:04;;;;;;;0.20;0.20;;;;;;;;;;5089363;28;20047;-71
2022/11/10 12:54:48;;;;;;;5.07;2.25;;;;;;;;;;5095697;28;20047;-70
2022/11/10 12:57:33;;;;;;;0.20;0.20;;;;;;;;;;5096203;28;20097;-71
2022/11/10 13:00:24;;;;;;;0.32;0.32;;;;;;;;;;5096675;28;20043;-73
2022/11/10 13:03:23;;;;;;;0.25;0.25;;;;;;;;;;5096338;28;20047;-71
2022/11/10 13:06:27;;;;;;;0.20;0.20;;;;;;;;;;5096129;28;20096;-69
2022/11/10 13:09:24;;;;;;;0.10;0.10;;;;;;;;;;5096276;28;20123;-69
2022/11/10 13:12:17;;;;;;;0.30;0.30;;;;;;;;;;5096147;28;20046;-71
2022/11/10 13:15:22;;;;;;;0.30;0.30;;;;;;;;;;5096417;28;20046;-71
2022/11/10 13:18:10;;;;;;;0.20;0.20;;;;;;;;;;5096168;28;20490;-71
2022/11/10 13:20:55;;;;;;;2.05;1.85;;;;;;;;;;5094721;28;20085;-71
2022/11/10 13:23:43;;;;;;;0.22;0.22;;;;;;;;;;5096377;28;20924;-71
2022/11/10 13:26:43;;;;;;;0.30;0.30;;;;;;;;;;5096061;28;20047;-72
2022/11/10 13:29:35;;;;;;;0.20;0.20;;;;;;;;;;5094341;28;20039;-72
2022/11/10 13:32:22;;;;;;;0.20;0.20;;;;;;;;;;5075584;28;20495;-72
2022/11/10 13:35:25;;;;;;;0.20;0.20;;;;;;;;;;5075983;28;20090;-73
2022/11/10 13:38:18;;;;;;;0.25;0.25;;;;;;;;;;5075828;28;20555;-72
2022/11/10 13:41:31;;;;;;;0.25;0.25;;;;;;;;;;5075469;28;20046;-72
2022/11/10 13:44:25;;;;;;;0.50;0.50;;;;;;;;;;5077232;28;20043;-70
2022/11/10 13:47:09;;;;;;;0.73;0.73;;;;;;;;;;5075657;28;20051;-71
2022/11/10 13:50:12;;;;;;;0.57;0.57;;;;;;;;;;5075652;28;20040;-71
2022/11/10 13:52:59;;;;;;;0.50;0.50;;;;;;;;;;5075160;28;20101;-73
2022/11/10 13:55:58;;;;;;;0.30;0.30;;;;;;;;;;5075651;28;20085;-71
2022/11/10 13:58:43;;;;;;;2.15;1.85;;;;;;;;;;5075360;28;20075;-72
2022/11/10 14:01:29;;;;;;;0.20;0.20;;;;;;;;;;5075680;28;20110;-72
2022/11/10 14:04:31;;;;;;;1.58;1.50;;;;;;;;;;5074277;28;20040;-71
2022/11/10 14:07:20;;;;;;;1.10;0.75;;;;;;;;;;5072495;28;20039;-71
2022/11/10 14:10:06;;;;;;;0.20;0.20;;;;;;;;;;5072184;28;20036;-71
2022/11/10 14:12:57;;;;;;;0.20;0.20;;;;;;;;;;5071658;28;20514;-72
2022/11/10 14:15:44;;;;;;;0.20;0.20;;;;;;;;;;5072458;28;20048;-70
2022/11/10 14:18:37;;;;;;;0.28;0.28;;;;;;;;;;5072053;28;20086;-71
2022/11/10 14:21:28;;;;;;;0.40;0.40;;;;;;;;;;5072240;28;20063;-70
2022/11/10 14:24:21;;;;;;;0.20;0.20;;;;;;;;;;5072049;28;20128;-70
2022/11/10 14:27:06;;;;;;;0.22;0.22;;;;;;;;;;5072082;28;20081;-69
2022/11/10 14:30:02;;;;;;;0.20;0.20;;;;;;;;;;5072210;28;20043;-71
2022/11/10 14:32:53;;;;;;;0.22;0.22;;;;;;;;;;5090997;28;20047;-71
2022/11/10 14:35:49;;;;;;;0.40;0.40;;;;;;;;;;5091756;28;20085;-72
2022/11/10 14:38:35;;;;;;;0.20;0.20;;;;;;;;;;5091935;28;20043;-73
2022/11/10 14:41:21;;;;;;;0.28;0.28;;;;;;;;;;5091915;28;20047;-71
2022/11/10 14:44:06;;;;;;;0.30;0.30;;;;;;;;;;5092289;28;20081;-71
2022/11/10 14:46:51;;;;;;;0.28;0.28;;;;;;;;;;5091703;28;20085;-71
2022/11/10 14:49:35;;;;;;;0.20;0.20;;;;;;;;;;5091882;28;20081;-70
2022/11/10 14:52:21;;;;;;;0.20;0.20;;;;;;;;;;5091526;28;20050;-73
2022/11/10 14:55:07;;;;;;;0.28;0.28;;;;;;;;;;5091895;28;20031;-70
2022/11/10 14:57:54;;;;;;;0.20;0.20;;;;;;;;;;5091334;28;20047;-70
2022/11/10 15:00:41;;;;;;;0.30;0.30;;;;;;;;;;5091517;28;20513;-70
2022/11/10 15:03:39;;;;;;;0.30;0.30;;;;;;;;;;5091456;28;20181;-72
2022/11/10 15:06:23;;;;;;;0.38;0.38;;;;;;;;;;5091486;28;20083;-70
2022/11/10 15:09:12;;;;;;;0.20;0.20;;;;;;;;;;5091807;28;20436;-70
2022/11/10 15:11:56;;;;;;;;;;;;;;;;;;5091495;28;20090;-69
2022/11/10 15:14:43;;;;;;;0.10;0.10;;;;;;;;;;5091098;28;19915;-72
2022/11/10 15:17:48;;;;;;;0.20;0.20;;;;;;;;;;5089519;28;20571;-69
2022/11/10 15:20:34;;;;;;;0.20;0.20;;;;;;;;;;5091057;28;20043;-70
2022/11/10 15:23:29;;;;;;;0.20;0.20;;;;;;;;;;5091133;28;20403;-69
2022/11/10 15:26:21;;;;;;;0.20;0.20;;;;;;;;;;5091037;28;20039;-70
2022/11/10 15:29:05;;;;;;;0.20;0.20;;;;;;;;;;5091112;28;20047;-70
2022/11/10 15:31:50;;;;;;;0.45;0.45;;;;;;;;;;5088051;28;20067;-72
2022/11/10 15:34:42;;;;;;;0.20;0.20;;;;;;;;;;5090688;28;20054;-69
2022/11/10 15:37:28;;;;;;;0.20;0.20;;;;;;;;;;5090732;28;20086;-70
2022/11/10 15:40:31;;;;;;;0.65;0.65;;;;;;;;;;5091198;28;20129;-69
2022/11/10 15:43:19;;;;;;;4.38;3.90;;;;;;;;;;5090732;28;20402;-70
2022/11/10 15:46:13;;;;;;;0.47;0.47;;;;;;;;;;5090683;28;20085;-70
2022/11/10 15:48:57;;;;;;;9.18;2.03;;;;;;;;;;5090327;28;20135;-70
2022/11/10 15:51:41;;;;;;;7.35;3.38;;;;;;;;;;5090339;28;20043;-69
2022/11/10 15:54:26;;;;;;;2.08;1.77;;;;;;;;;;5090733;28;20043;-70
2022/11/10 15:57:15;;;;;;;0.55;0.55;;;;;;;;;;5090497;28;20039;-70
2022/11/10 15:59:59;;;;;;;0.35;0.35;;;;;;;;;;5090390;28;20522;-70
2022/11/10 16:02:44;;;;;;;0.20;0.20;;;;;;;;;;5090099;28;20081;-70
2022/11/10 16:05:28;;;;;;;0.45;0.45;;;;;;;;;;5090366;28;20128;-70
2022/11/10 16:08:14;;;;;;;2.17;1.23;;;;;;;;;;5090277;28;20177;-69
2022/11/10 16:10:59;;;;;;;0.20;0.20;;;;;;;;;;5089266;28;20046;-70
2022/11/10 16:13:43;;;;;;;1.38;1.30;;;;;;;;;;5089746;28;20047;-70
2022/11/10 16:16:28;;;;;;;0.43;0.43;;;;;;;;;;5090189;28;20456;-70
2022/11/10 16:19:12;;;;;;;0.20;0.20;;;;;;;;;;5089030;28;20051;-70
2022/11/10 16:21:57;;;;;;;0.77;0.77;;;;;;;;;;5090220;28;20043;-70
2022/11/10 16:24:41;;;;;;;0.25;0.25;;;;;;;;;;5089584;28;20043;-69
2022/11/10 16:27:25;;;;;;;0.10;0.10;;;;;;;;;;5089676;28;20031;-70
2022/11/10 16:30:13;;;;;;;0.13;0.13;;;;;;;;;;5089538;28;20050;-70
2022/11/10 16:32:58;;;;;;;0.20;0.20;;;;;;;;;;5089433;28;20051;-70
2022/11/10 16:35:44;;;;;;;0.20;0.20;;;;;;;;;;5089973;28;20063;-69
2022/11/10 16:38:28;;;;;;;0.28;0.28;;;;;;;;;;5088737;28;20062;-69
2022/11/10 16:41:13;;;;;;;0.20;0.20;;;;;;;;;;5089835;28;20042;-69
2022/11/10 16:43:57;;;;;;;0.20;0.20;;;;;;;;;;5089959;28;20101;-69
2022/11/10 16:46:42;;;;;;;0.20;0.20;;;;;;;;;;5089400;28;20074;-69
2022/11/10 16:49:30;;;;;;;0.20;0.20;;;;;;;;;;5089911;28;20093;-70
2022/11/10 16:52:15;;;;;;;0.30;0.30;;;;;;;;;;5089931;28;20117;-69
2022/11/10 16:54:59;;;;;;;0.13;0.13;;;;;;;;;;5089755;28;20050;-72